sensor_id;sensor_type;location;lat;lon;timestamp;P1;durP1;ratioP1;P2;durP2;ratioP2
4650;SDS011;2338;49.602;8.722;2022-12-07T00:02:40;11.75;;;8.60;;
4650;SDS011;2338;49.602;8.722;2022-12-07T00:05:25;12.40;;;8.95;;
4650;SDS011;2338;49.602;8.722;2022-12-07T00:08:11;16.73;;;9.38;;
4650;SDS011;2338;49.602;8.722;2022-12-07T00:11:01;10.65;;;8.05;;
4650;SDS011;2338;49.602;8.722;2022-12-07T00:13:50;13.25;;;8.90;;
4650;SDS011;2338;49.602;8.722;2022-12-07T00:16:36;15.95;;;9.30;;
4650;SDS011;2338;49.602;8.722;2022-12-07T00:19:22;14.30;;;8.95;;
4650;SDS011;2338;49.602;8.722;2022-12-07T00:22:08;12.20;;;8.85;;
4650;SDS011;2338;49.602;8.722;2022-12-07T00:24:54;11.70;;;7.95;;
4650;SDS011;2338;49.602;8.722;2022-12-07T00:27:41;13.07;;;8.45;;
4650;SDS011;2338;49.602;8.722;2022-12-07T00:30:26;11.20;;;8.10;;
4650;SDS011;2338;49.602;8.722;2022-12-07T00:33:12;11.82;;;8.77;;
4650;SDS011;2338;49.602;8.722;2022-12-07T00:35:58;11.27;;;8.15;;
4650;SDS011;2338;49.602;8.722;2022-12-07T00:38:44;13.68;;;9.05;;
4650;SDS011;2338;49.602;8.722;2022-12-07T00:41:30;13.23;;;9.82;;
4650;SDS011;2338;49.602;8.722;2022-12-07T00:44:17;11.93;;;8.82;;
4650;SDS011;2338;49.602;8.722;2022-12-07T00:47:02;12.95;;;8.60;;
4650;SDS011;2338;49.602;8.722;2022-12-07T00:49:48;12.38;;;8.38;;
4650;SDS011;2338;49.602;8.722;2022-12-07T00:52:34;16.90;;;9.38;;
4650;SDS011;2338;49.602;8.722;2022-12-07T00:55:19;15.88;;;8.30;;
4650;SDS011;2338;49.602;8.722;2022-12-07T00:58:05;12.80;;;9.25;;
4650;SDS011;2338;49.602;8.722;2022-12-07T01:00:52;11.82;;;8.77;;
4650;SDS011;2338;49.602;8.722;2022-12-07T01:03:38;14.82;;;8.65;;
4650;SDS011;2338;49.602;8.722;2022-12-07T01:06:23;10.88;;;8.63;;
4650;SDS011;2338;49.602;8.722;2022-12-07T01:09:09;14.50;;;9.50;;
4650;SDS011;2338;49.602;8.722;2022-12-07T01:11:55;12.52;;;8.25;;
4650;SDS011;2338;49.602;8.722;2022-12-07T01:14:41;10.57;;;7.90;;
4650;SDS011;2338;49.602;8.722;2022-12-07T01:17:29;14.05;;;8.75;;
4650;SDS011;2338;49.602;8.722;2022-12-07T01:20:14;12.50;;;8.57;;
4650;SDS011;2338;49.602;8.722;2022-12-07T01:23:00;12.38;;;8.27;;
4650;SDS011;2338;49.602;8.722;2022-12-07T01:25:46;15.13;;;8.52;;
4650;SDS011;2338;49.602;8.722;2022-12-07T01:28:39;12.90;;;8.70;;
4650;SDS011;2338;49.602;8.722;2022-12-07T01:31:25;15.30;;;8.93;;
4650;SDS011;2338;49.602;8.722;2022-12-07T01:34:13;13.35;;;9.15;;
4650;SDS011;2338;49.602;8.722;2022-12-07T01:36:58;10.02;;;7.80;;
4650;SDS011;2338;49.602;8.722;2022-12-07T01:39:44;14.95;;;9.05;;
4650;SDS011;2338;49.602;8.722;2022-12-07T01:42:32;14.30;;;8.98;;
4650;SDS011;2338;49.602;8.722;2022-12-07T01:48:29;14.25;;;9.60;;
4650;SDS011;2338;49.602;8.722;2022-12-07T01:51:20;11.60;;;8.40;;
4650;SDS011;2338;49.602;8.722;2022-12-07T01:54:05;14.55;;;8.23;;
4650;SDS011;2338;49.602;8.722;2022-12-07T01:56:52;14.50;;;9.70;;
4650;SDS011;2338;49.602;8.722;2022-12-07T01:59:40;14.30;;;9.32;;
4650;SDS011;2338;49.602;8.722;2022-12-07T02:02:27;17.75;;;9.55;;
4650;SDS011;2338;49.602;8.722;2022-12-07T02:05:16;15.02;;;9.02;;
4650;SDS011;2338;49.602;8.722;2022-12-07T02:08:04;14.18;;;9.30;;
4650;SDS011;2338;49.602;8.722;2022-12-07T02:10:50;15.05;;;9.38;;
4650;SDS011;2338;49.602;8.722;2022-12-07T02:13:36;10.98;;;8.20;;
4650;SDS011;2338;49.602;8.722;2022-12-07T02:16:29;12.40;;;8.50;;
4650;SDS011;2338;49.602;8.722;2022-12-07T02:19:39;15.35;;;8.63;;
4650;SDS011;2338;49.602;8.722;2022-12-07T02:22:54;15.57;;;8.98;;
4650;SDS011;2338;49.602;8.722;2022-12-07T02:25:55;13.85;;;9.43;;
4650;SDS011;2338;49.602;8.722;2022-12-07T02:29:08;12.57;;;9.60;;
4650;SDS011;2338;49.602;8.722;2022-12-07T02:32:01;13.75;;;9.50;;
4650;SDS011;2338;49.602;8.722;2022-12-07T02:34:53;17.67;;;8.88;;
4650;SDS011;2338;49.602;8.722;2022-12-07T02:37:48;13.25;;;9.35;;
4650;SDS011;2338;49.602;8.722;2022-12-07T02:40:42;16.90;;;9.57;;
4650;SDS011;2338;49.602;8.722;2022-12-07T02:43:33;15.65;;;11.00;;
4650;SDS011;2338;49.602;8.722;2022-12-07T02:46:25;16.88;;;10.63;;
4650;SDS011;2338;49.602;8.722;2022-12-07T02:49:14;13.00;;;8.85;;
4650;SDS011;2338;49.602;8.722;2022-12-07T02:52:01;14.23;;;9.50;;
4650;SDS011;2338;49.602;8.722;2022-12-07T02:54:46;12.30;;;8.90;;
4650;SDS011;2338;49.602;8.722;2022-12-07T02:57:42;16.65;;;10.45;;
4650;SDS011;2338;49.602;8.722;2022-12-07T03:00:44;12.60;;;8.52;;
4650;SDS011;2338;49.602;8.722;2022-12-07T03:03:38;14.80;;;9.10;;
4650;SDS011;2338;49.602;8.722;2022-12-07T03:06:27;14.60;;;9.05;;
4650;SDS011;2338;49.602;8.722;2022-12-07T03:09:18;13.40;;;10.05;;
4650;SDS011;2338;49.602;8.722;2022-12-07T03:12:12;13.90;;;9.45;;
4650;SDS011;2338;49.602;8.722;2022-12-07T03:15:03;14.50;;;10.00;;
4650;SDS011;2338;49.602;8.722;2022-12-07T03:17:53;16.27;;;10.10;;
4650;SDS011;2338;49.602;8.722;2022-12-07T03:20:44;17.95;;;10.73;;
4650;SDS011;2338;49.602;8.722;2022-12-07T03:23:32;15.25;;;10.40;;
4650;SDS011;2338;49.602;8.722;2022-12-07T03:26:23;12.45;;;8.88;;
4650;SDS011;2338;49.602;8.722;2022-12-07T03:29:16;11.65;;;7.88;;
4650;SDS011;2338;49.602;8.722;2022-12-07T03:32:06;14.07;;;9.05;;
4650;SDS011;2338;49.602;8.722;2022-12-07T03:34:57;14.10;;;8.98;;
4650;SDS011;2338;49.602;8.722;2022-12-07T03:37:51;14.32;;;9.43;;
4650;SDS011;2338;49.602;8.722;2022-12-07T03:40:42;14.85;;;9.18;;
4650;SDS011;2338;49.602;8.722;2022-12-07T03:43:31;14.23;;;9.13;;
4650;SDS011;2338;49.602;8.722;2022-12-07T03:46:17;17.08;;;11.05;;
4650;SDS011;2338;49.602;8.722;2022-12-07T03:49:11;13.85;;;9.43;;
4650;SDS011;2338;49.602;8.722;2022-12-07T03:52:03;16.35;;;11.52;;
4650;SDS011;2338;49.602;8.722;2022-12-07T03:55:06;15.63;;;10.05;;
4650;SDS011;2338;49.602;8.722;2022-12-07T03:57:56;13.88;;;9.20;;
4650;SDS011;2338;49.602;8.722;2022-12-07T04:00:46;15.40;;;9.43;;
4650;SDS011;2338;49.602;8.722;2022-12-07T04:03:33;12.95;;;9.82;;
4650;SDS011;2338;49.602;8.722;2022-12-07T04:06:19;15.90;;;9.90;;
4650;SDS011;2338;49.602;8.722;2022-12-07T04:09:04;16.02;;;10.75;;
4650;SDS011;2338;49.602;8.722;2022-12-07T04:11:51;12.23;;;10.07;;
4650;SDS011;2338;49.602;8.722;2022-12-07T04:14:37;16.85;;;10.63;;
4650;SDS011;2338;49.602;8.722;2022-12-07T04:17:22;14.15;;;9.80;;
4650;SDS011;2338;49.602;8.722;2022-12-07T04:20:09;15.65;;;10.75;;
4650;SDS011;2338;49.602;8.722;2022-12-07T04:22:55;16.80;;;11.52;;
4650;SDS011;2338;49.602;8.722;2022-12-07T04:25:41;14.85;;;8.95;;
4650;SDS011;2338;49.602;8.722;2022-12-07T04:28:27;14.60;;;9.95;;
4650;SDS011;2338;49.602;8.722;2022-12-07T04:31:13;13.32;;;9.50;;
4650;SDS011;2338;49.602;8.722;2022-12-07T04:33:59;12.85;;;9.93;;
4650;SDS011;2338;49.602;8.722;2022-12-07T04:36:45;16.33;;;10.23;;
4650;SDS011;2338;49.602;8.722;2022-12-07T04:39:31;19.05;;;11.25;;
4650;SDS011;2338;49.602;8.722;2022-12-07T04:42:17;15.95;;;9.82;;
4650;SDS011;2338;49.602;8.722;2022-12-07T04:45:05;20.52;;;11.70;;
4650;SDS011;2338;49.602;8.722;2022-12-07T04:47:51;16.38;;;10.77;;
4650;SDS011;2338;49.602;8.722;2022-12-07T04:50:37;13.75;;;9.10;;
4650;SDS011;2338;49.602;8.722;2022-12-07T04:53:22;16.48;;;11.32;;
4650;SDS011;2338;49.602;8.722;2022-12-07T04:56:08;16.08;;;11.10;;
4650;SDS011;2338;49.602;8.722;2022-12-07T04:58:54;16.05;;;10.98;;
4650;SDS011;2338;49.602;8.722;2022-12-07T05:01:41;13.85;;;10.07;;
4650;SDS011;2338;49.602;8.722;2022-12-07T05:04:27;13.50;;;10.18;;
4650;SDS011;2338;49.602;8.722;2022-12-07T05:07:13;17.15;;;10.88;;
4650;SDS011;2338;49.602;8.722;2022-12-07T05:09:59;13.98;;;9.75;;
4650;SDS011;2338;49.602;8.722;2022-12-07T05:12:45;14.38;;;9.75;;
4650;SDS011;2338;49.602;8.722;2022-12-07T05:15:31;17.92;;;11.40;;
4650;SDS011;2338;49.602;8.722;2022-12-07T05:18:17;14.52;;;10.57;;
4650;SDS011;2338;49.602;8.722;2022-12-07T05:21:03;14.90;;;10.05;;
4650;SDS011;2338;49.602;8.722;2022-12-07T05:23:49;15.73;;;10.70;;
4650;SDS011;2338;49.602;8.722;2022-12-07T05:26:34;13.65;;;9.35;;
4650;SDS011;2338;49.602;8.722;2022-12-07T05:29:20;15.45;;;10.25;;
4650;SDS011;2338;49.602;8.722;2022-12-07T05:32:05;11.82;;;9.00;;
4650;SDS011;2338;49.602;8.722;2022-12-07T05:34:53;16.10;;;11.68;;
4650;SDS011;2338;49.602;8.722;2022-12-07T05:37:38;14.02;;;8.85;;
4650;SDS011;2338;49.602;8.722;2022-12-07T05:40:24;15.20;;;10.52;;
4650;SDS011;2338;49.602;8.722;2022-12-07T05:43:10;14.73;;;9.20;;
4650;SDS011;2338;49.602;8.722;2022-12-07T05:45:56;13.77;;;9.82;;
4650;SDS011;2338;49.602;8.722;2022-12-07T05:48:41;13.52;;;9.23;;
4650;SDS011;2338;49.602;8.722;2022-12-07T05:51:29;13.32;;;9.20;;
4650;SDS011;2338;49.602;8.722;2022-12-07T05:54:14;12.75;;;9.05;;
4650;SDS011;2338;49.602;8.722;2022-12-07T05:57:00;11.93;;;9.15;;
4650;SDS011;2338;49.602;8.722;2022-12-07T05:59:45;18.60;;;9.02;;
4650;SDS011;2338;49.602;8.722;2022-12-07T06:02:30;10.55;;;8.55;;
4650;SDS011;2338;49.602;8.722;2022-12-07T06:05:15;13.07;;;9.20;;
4650;SDS011;2338;49.602;8.722;2022-12-07T06:08:02;11.50;;;8.65;;
4650;SDS011;2338;49.602;8.722;2022-12-07T06:10:48;14.98;;;9.15;;
4650;SDS011;2338;49.602;8.722;2022-12-07T06:13:55;13.13;;;9.30;;
4650;SDS011;2338;49.602;8.722;2022-12-07T06:16:40;12.10;;;9.05;;
4650;SDS011;2338;49.602;8.722;2022-12-07T06:19:26;12.73;;;8.60;;
4650;SDS011;2338;49.602;8.722;2022-12-07T06:22:11;11.55;;;8.85;;
4650;SDS011;2338;49.602;8.722;2022-12-07T06:24:58;13.13;;;8.57;;
4650;SDS011;2338;49.602;8.722;2022-12-07T06:27:45;26.08;;;10.00;;
4650;SDS011;2338;49.602;8.722;2022-12-07T06:30:30;11.95;;;8.65;;
4650;SDS011;2338;49.602;8.722;2022-12-07T06:33:16;12.45;;;9.00;;
4650;SDS011;2338;49.602;8.722;2022-12-07T06:36:01;18.30;;;9.07;;
4650;SDS011;2338;49.602;8.722;2022-12-07T06:38:47;21.85;;;9.25;;
4650;SDS011;2338;49.602;8.722;2022-12-07T06:41:34;13.68;;;9.25;;
4650;SDS011;2338;49.602;8.722;2022-12-07T06:44:21;14.43;;;10.05;;
4650;SDS011;2338;49.602;8.722;2022-12-07T06:47:07;15.50;;;10.55;;
4650;SDS011;2338;49.602;8.722;2022-12-07T06:49:53;13.23;;;9.10;;
4650;SDS011;2338;49.602;8.722;2022-12-07T06:52:39;20.25;;;10.00;;
4650;SDS011;2338;49.602;8.722;2022-12-07T06:55:24;15.18;;;9.93;;
4650;SDS011;2338;49.602;8.722;2022-12-07T06:58:11;13.55;;;9.63;;
4650;SDS011;2338;49.602;8.722;2022-12-07T07:00:56;17.05;;;9.18;;
4650;SDS011;2338;49.602;8.722;2022-12-07T07:03:42;12.98;;;9.52;;
4650;SDS011;2338;49.602;8.722;2022-12-07T07:06:28;15.57;;;9.55;;
4650;SDS011;2338;49.602;8.722;2022-12-07T07:09:13;12.63;;;8.80;;
4650;SDS011;2338;49.602;8.722;2022-12-07T07:11:59;15.07;;;8.75;;
4650;SDS011;2338;49.602;8.722;2022-12-07T07:14:46;10.98;;;8.52;;
4650;SDS011;2338;49.602;8.722;2022-12-07T07:17:31;12.90;;;8.70;;
4650;SDS011;2338;49.602;8.722;2022-12-07T07:20:17;12.43;;;8.38;;
4650;SDS011;2338;49.602;8.722;2022-12-07T07:23:03;11.70;;;8.32;;
4650;SDS011;2338;49.602;8.722;2022-12-07T07:25:49;12.45;;;9.50;;
4650;SDS011;2338;49.602;8.722;2022-12-07T07:28:35;14.23;;;9.10;;
4650;SDS011;2338;49.602;8.722;2022-12-07T07:31:21;12.07;;;8.73;;
4650;SDS011;2338;49.602;8.722;2022-12-07T07:34:07;12.82;;;9.30;;
4650;SDS011;2338;49.602;8.722;2022-12-07T07:36:52;19.92;;;9.20;;
4650;SDS011;2338;49.602;8.722;2022-12-07T07:39:38;15.60;;;9.55;;
4650;SDS011;2338;49.602;8.722;2022-12-07T07:42:23;10.95;;;7.95;;
4650;SDS011;2338;49.602;8.722;2022-12-07T07:45:09;13.98;;;9.25;;
4650;SDS011;2338;49.602;8.722;2022-12-07T07:47:56;14.27;;;10.55;;
4650;SDS011;2338;49.602;8.722;2022-12-07T07:50:42;16.75;;;11.45;;
4650;SDS011;2338;49.602;8.722;2022-12-07T07:53:27;14.10;;;9.70;;
4650;SDS011;2338;49.602;8.722;2022-12-07T07:56:13;14.95;;;10.98;;
4650;SDS011;2338;49.602;8.722;2022-12-07T07:58:59;15.80;;;9.70;;
4650;SDS011;2338;49.602;8.722;2022-12-07T08:01:44;16.20;;;11.43;;
4650;SDS011;2338;49.602;8.722;2022-12-07T08:04:31;16.35;;;10.90;;
4650;SDS011;2338;49.602;8.722;2022-12-07T08:07:17;15.50;;;10.65;;
4650;SDS011;2338;49.602;8.722;2022-12-07T08:10:03;13.82;;;11.02;;
4650;SDS011;2338;49.602;8.722;2022-12-07T08:12:49;15.57;;;10.15;;
4650;SDS011;2338;49.602;8.722;2022-12-07T08:15:52;13.85;;;10.38;;
4650;SDS011;2338;49.602;8.722;2022-12-07T08:18:39;14.15;;;9.90;;
4650;SDS011;2338;49.602;8.722;2022-12-07T08:21:26;15.77;;;10.00;;
4650;SDS011;2338;49.602;8.722;2022-12-07T08:24:12;13.07;;;9.77;;
4650;SDS011;2338;49.602;8.722;2022-12-07T08:26:58;14.38;;;10.05;;
4650;SDS011;2338;49.602;8.722;2022-12-07T08:29:44;15.68;;;11.02;;
4650;SDS011;2338;49.602;8.722;2022-12-07T08:32:30;14.75;;;11.00;;
4650;SDS011;2338;49.602;8.722;2022-12-07T08:35:15;13.60;;;9.95;;
4650;SDS011;2338;49.602;8.722;2022-12-07T08:38:02;16.38;;;11.15;;
4650;SDS011;2338;49.602;8.722;2022-12-07T08:40:53;18.60;;;11.60;;
4650;SDS011;2338;49.602;8.722;2022-12-07T08:43:39;16.05;;;11.45;;
4650;SDS011;2338;49.602;8.722;2022-12-07T08:46:26;20.17;;;12.23;;
4650;SDS011;2338;49.602;8.722;2022-12-07T08:49:18;14.15;;;10.35;;
4650;SDS011;2338;49.602;8.722;2022-12-07T08:52:06;18.55;;;11.15;;
4650;SDS011;2338;49.602;8.722;2022-12-07T08:54:53;16.60;;;11.60;;
4650;SDS011;2338;49.602;8.722;2022-12-07T08:57:38;16.52;;;11.70;;
4650;SDS011;2338;49.602;8.722;2022-12-07T09:00:26;16.70;;;11.10;;
4650;SDS011;2338;49.602;8.722;2022-12-07T09:03:11;24.63;;;12.80;;
4650;SDS011;2338;49.602;8.722;2022-12-07T09:05:57;15.85;;;11.90;;
4650;SDS011;2338;49.602;8.722;2022-12-07T09:08:46;18.55;;;10.90;;
4650;SDS011;2338;49.602;8.722;2022-12-07T09:11:34;15.40;;;11.30;;
4650;SDS011;2338;49.602;8.722;2022-12-07T09:14:19;17.45;;;12.48;;
4650;SDS011;2338;49.602;8.722;2022-12-07T09:17:05;17.85;;;12.07;;
4650;SDS011;2338;49.602;8.722;2022-12-07T09:19:51;17.65;;;12.43;;
4650;SDS011;2338;49.602;8.722;2022-12-07T09:22:37;16.75;;;11.43;;
4650;SDS011;2338;49.602;8.722;2022-12-07T09:25:22;16.00;;;11.90;;
4650;SDS011;2338;49.602;8.722;2022-12-07T09:28:09;17.45;;;12.60;;
4650;SDS011;2338;49.602;8.722;2022-12-07T09:30:55;18.30;;;12.10;;
4650;SDS011;2338;49.602;8.722;2022-12-07T09:33:41;22.17;;;13.38;;
4650;SDS011;2338;49.602;8.722;2022-12-07T09:36:27;20.08;;;12.05;;
4650;SDS011;2338;49.602;8.722;2022-12-07T09:39:13;16.33;;;11.15;;
4650;SDS011;2338;49.602;8.722;2022-12-07T09:41:59;20.10;;;13.48;;
4650;SDS011;2338;49.602;8.722;2022-12-07T09:44:50;17.55;;;13.07;;
4650;SDS011;2338;49.602;8.722;2022-12-07T09:47:36;18.67;;;12.43;;
4650;SDS011;2338;49.602;8.722;2022-12-07T09:50:22;16.77;;;12.65;;
4650;SDS011;2338;49.602;8.722;2022-12-07T09:53:13;16.88;;;11.68;;
4650;SDS011;2338;49.602;8.722;2022-12-07T09:56:00;17.80;;;13.02;;
4650;SDS011;2338;49.602;8.722;2022-12-07T09:58:46;17.17;;;11.73;;
4650;SDS011;2338;49.602;8.722;2022-12-07T10:01:34;20.75;;;13.20;;
4650;SDS011;2338;49.602;8.722;2022-12-07T10:04:21;15.48;;;11.48;;
4650;SDS011;2338;49.602;8.722;2022-12-07T10:07:08;18.15;;;12.02;;
4650;SDS011;2338;49.602;8.722;2022-12-07T10:09:54;17.80;;;12.30;;
4650;SDS011;2338;49.602;8.722;2022-12-07T10:12:52;17.73;;;12.60;;
4650;SDS011;2338;49.602;8.722;2022-12-07T10:15:46;18.90;;;12.05;;
4650;SDS011;2338;49.602;8.722;2022-12-07T10:18:37;18.45;;;12.43;;
4650;SDS011;2338;49.602;8.722;2022-12-07T10:21:25;15.77;;;11.50;;
4650;SDS011;2338;49.602;8.722;2022-12-07T10:24:13;23.27;;;14.15;;
4650;SDS011;2338;49.602;8.722;2022-12-07T10:26:59;20.73;;;13.07;;
4650;SDS011;2338;49.602;8.722;2022-12-07T10:29:47;17.58;;;11.60;;
4650;SDS011;2338;49.602;8.722;2022-12-07T10:32:34;18.67;;;12.95;;
4650;SDS011;2338;49.602;8.722;2022-12-07T10:35:24;18.30;;;13.75;;
4650;SDS011;2338;49.602;8.722;2022-12-07T10:38:16;20.92;;;12.15;;
4650;SDS011;2338;49.602;8.722;2022-12-07T10:41:02;20.80;;;12.25;;
4650;SDS011;2338;49.602;8.722;2022-12-07T10:43:50;17.23;;;11.93;;
4650;SDS011;2338;49.602;8.722;2022-12-07T10:46:51;15.95;;;11.55;;
4650;SDS011;2338;49.602;8.722;2022-12-07T10:50:08;16.88;;;12.25;;
4650;SDS011;2338;49.602;8.722;2022-12-07T10:53:12;19.00;;;11.95;;
4650;SDS011;2338;49.602;8.722;2022-12-07T10:56:23;17.83;;;11.97;;
4650;SDS011;2338;49.602;8.722;2022-12-07T10:59:50;20.13;;;13.32;;
4650;SDS011;2338;49.602;8.722;2022-12-07T11:02:57;20.80;;;13.48;;
4650;SDS011;2338;49.602;8.722;2022-12-07T11:06:04;21.17;;;13.70;;
4650;SDS011;2338;49.602;8.722;2022-12-07T11:09:03;17.95;;;12.65;;
4650;SDS011;2338;49.602;8.722;2022-12-07T11:12:02;21.33;;;13.02;;
4650;SDS011;2338;49.602;8.722;2022-12-07T11:14:56;21.98;;;13.10;;
4650;SDS011;2338;49.602;8.722;2022-12-07T11:17:48;19.75;;;13.23;;
4650;SDS011;2338;49.602;8.722;2022-12-07T11:20:41;20.88;;;12.70;;
4650;SDS011;2338;49.602;8.722;2022-12-07T11:23:32;23.65;;;13.65;;
4650;SDS011;2338;49.602;8.722;2022-12-07T11:26:34;19.95;;;12.63;;
4650;SDS011;2338;49.602;8.722;2022-12-07T11:29:47;20.05;;;12.43;;
4650;SDS011;2338;49.602;8.722;2022-12-07T11:32:44;21.52;;;13.85;;
4650;SDS011;2338;49.602;8.722;2022-12-07T11:35:49;21.38;;;12.57;;
4650;SDS011;2338;49.602;8.722;2022-12-07T11:38:46;20.77;;;13.80;;
4650;SDS011;2338;49.602;8.722;2022-12-07T11:41:37;22.67;;;13.80;;
4650;SDS011;2338;49.602;8.722;2022-12-07T11:44:27;17.65;;;12.38;;
4650;SDS011;2338;49.602;8.722;2022-12-07T11:47:21;21.38;;;13.50;;
4650;SDS011;2338;49.602;8.722;2022-12-07T11:50:22;22.05;;;13.68;;
4650;SDS011;2338;49.602;8.722;2022-12-07T11:53:14;20.63;;;13.73;;
4650;SDS011;2338;49.602;8.722;2022-12-07T11:56:03;24.85;;;13.80;;
4650;SDS011;2338;49.602;8.722;2022-12-07T11:58:58;24.38;;;13.40;;
4650;SDS011;2338;49.602;8.722;2022-12-07T12:01:52;21.00;;;13.20;;
4650;SDS011;2338;49.602;8.722;2022-12-07T12:04:46;19.60;;;13.00;;
4650;SDS011;2338;49.602;8.722;2022-12-07T12:07:36;16.73;;;12.18;;
4650;SDS011;2338;49.602;8.722;2022-12-07T12:10:23;21.15;;;11.70;;
4650;SDS011;2338;49.602;8.722;2022-12-07T12:13:22;18.00;;;12.73;;
4650;SDS011;2338;49.602;8.722;2022-12-07T12:22:45;20.05;;;13.32;;
4650;SDS011;2338;49.602;8.722;2022-12-07T12:25:36;17.75;;;12.30;;
4650;SDS011;2338;49.602;8.722;2022-12-07T12:28:27;15.45;;;11.27;;
4650;SDS011;2338;49.602;8.722;2022-12-07T12:31:15;19.77;;;13.20;;
4650;SDS011;2338;49.602;8.722;2022-12-07T12:34:37;17.55;;;11.25;;
4650;SDS011;2338;49.602;8.722;2022-12-07T12:37:41;18.08;;;11.88;;
4650;SDS011;2338;49.602;8.722;2022-12-07T12:40:38;22.35;;;14.85;;
4650;SDS011;2338;49.602;8.722;2022-12-07T12:43:41;16.40;;;11.32;;
4650;SDS011;2338;49.602;8.722;2022-12-07T12:49:37;20.07;;;14.40;;
4650;SDS011;2338;49.602;8.722;2022-12-07T12:59:21;26.35;;;13.40;;
4650;SDS011;2338;49.602;8.722;2022-12-07T13:02:15;15.93;;;11.88;;
4650;SDS011;2338;49.602;8.722;2022-12-07T13:05:16;19.17;;;11.95;;
4650;SDS011;2338;49.602;8.722;2022-12-07T13:08:05;23.50;;;13.40;;
4650;SDS011;2338;49.602;8.722;2022-12-07T13:11:15;21.17;;;13.33;;
4650;SDS011;2338;49.602;8.722;2022-12-07T13:20:55;17.40;;;11.73;;
4650;SDS011;2338;49.602;8.722;2022-12-07T13:23:52;19.83;;;12.48;;
4650;SDS011;2338;49.602;8.722;2022-12-07T13:26:41;17.63;;;11.50;;
4650;SDS011;2338;49.602;8.722;2022-12-07T13:29:28;24.42;;;11.90;;
4650;SDS011;2338;49.602;8.722;2022-12-07T13:32:23;18.70;;;12.80;;
4650;SDS011;2338;49.602;8.722;2022-12-07T13:35:31;18.43;;;12.50;;
4650;SDS011;2338;49.602;8.722;2022-12-07T13:38:23;21.92;;;12.40;;
4650;SDS011;2338;49.602;8.722;2022-12-07T13:41:13;15.20;;;10.98;;
4650;SDS011;2338;49.602;8.722;2022-12-07T13:44:00;20.30;;;12.95;;
4650;SDS011;2338;49.602;8.722;2022-12-07T13:46:49;17.60;;;11.23;;
4650;SDS011;2338;49.602;8.722;2022-12-07T13:49:45;18.73;;;11.50;;
4650;SDS011;2338;49.602;8.722;2022-12-07T13:52:32;16.40;;;10.55;;
4650;SDS011;2338;49.602;8.722;2022-12-07T13:55:19;19.98;;;12.65;;
4650;SDS011;2338;49.602;8.722;2022-12-07T13:58:05;16.77;;;10.73;;
4650;SDS011;2338;49.602;8.722;2022-12-07T14:00:53;14.77;;;9.85;;
4650;SDS011;2338;49.602;8.722;2022-12-07T14:03:39;22.17;;;10.88;;
4650;SDS011;2338;49.602;8.722;2022-12-07T14:06:25;18.52;;;9.50;;
4650;SDS011;2338;49.602;8.722;2022-12-07T14:09:17;22.65;;;14.25;;
4650;SDS011;2338;49.602;8.722;2022-12-07T14:12:05;18.60;;;12.18;;
4650;SDS011;2338;49.602;8.722;2022-12-07T14:14:51;18.60;;;10.57;;
4650;SDS011;2338;49.602;8.722;2022-12-07T14:17:38;19.00;;;10.85;;
4650;SDS011;2338;49.602;8.722;2022-12-07T14:20:36;14.90;;;11.18;;
4650;SDS011;2338;49.602;8.722;2022-12-07T14:23:23;19.63;;;10.35;;
4650;SDS011;2338;49.602;8.722;2022-12-07T14:26:11;15.25;;;10.90;;
4650;SDS011;2338;49.602;8.722;2022-12-07T14:32:15;15.25;;;9.95;;
4650;SDS011;2338;49.602;8.722;2022-12-07T14:35:12;16.67;;;11.53;;
4650;SDS011;2338;49.602;8.722;2022-12-07T14:37:59;14.93;;;10.07;;
4650;SDS011;2338;49.602;8.722;2022-12-07T14:40:44;13.45;;;9.52;;
4650;SDS011;2338;49.602;8.722;2022-12-07T14:43:30;17.58;;;11.45;;
4650;SDS011;2338;49.602;8.722;2022-12-07T14:46:17;19.65;;;10.38;;
4650;SDS011;2338;49.602;8.722;2022-12-07T14:49:02;17.73;;;12.40;;
4650;SDS011;2338;49.602;8.722;2022-12-07T14:51:48;15.75;;;10.27;;
4650;SDS011;2338;49.602;8.722;2022-12-07T14:54:34;16.20;;;9.68;;
4650;SDS011;2338;49.602;8.722;2022-12-07T14:57:20;20.80;;;9.60;;
4650;SDS011;2338;49.602;8.722;2022-12-07T15:00:06;14.40;;;8.77;;
4650;SDS011;2338;49.602;8.722;2022-12-07T15:02:55;18.77;;;11.05;;
4650;SDS011;2338;49.602;8.722;2022-12-07T15:05:41;20.35;;;11.45;;
4650;SDS011;2338;49.602;8.722;2022-12-07T15:08:27;12.73;;;9.90;;
4650;SDS011;2338;49.602;8.722;2022-12-07T15:11:13;15.95;;;8.98;;
4650;SDS011;2338;49.602;8.722;2022-12-07T15:13:59;14.60;;;8.68;;
4650;SDS011;2338;49.602;8.722;2022-12-07T15:16:55;12.02;;;8.10;;
4650;SDS011;2338;49.602;8.722;2022-12-07T15:19:42;13.18;;;7.90;;
4650;SDS011;2338;49.602;8.722;2022-12-07T15:22:28;10.15;;;8.00;;
4650;SDS011;2338;49.602;8.722;2022-12-07T15:25:15;8.70;;;6.65;;
4650;SDS011;2338;49.602;8.722;2022-12-07T15:28:01;12.05;;;7.50;;
4650;SDS011;2338;49.602;8.722;2022-12-07T15:30:47;12.02;;;6.63;;
4650;SDS011;2338;49.602;8.722;2022-12-07T15:33:32;10.10;;;5.80;;
4650;SDS011;2338;49.602;8.722;2022-12-07T15:36:21;9.25;;;5.70;;
4650;SDS011;2338;49.602;8.722;2022-12-07T15:39:08;10.95;;;6.28;;
4650;SDS011;2338;49.602;8.722;2022-12-07T15:41:53;11.68;;;6.95;;
4650;SDS011;2338;49.602;8.722;2022-12-07T15:44:39;8.07;;;6.40;;
4650;SDS011;2338;49.602;8.722;2022-12-07T15:47:42;8.80;;;6.70;;
4650;SDS011;2338;49.602;8.722;2022-12-07T15:50:29;8.25;;;6.20;;
4650;SDS011;2338;49.602;8.722;2022-12-07T15:53:16;13.77;;;8.80;;
4650;SDS011;2338;49.602;8.722;2022-12-07T15:56:05;14.55;;;7.95;;
4650;SDS011;2338;49.602;8.722;2022-12-07T15:58:51;7.80;;;6.00;;
4650;SDS011;2338;49.602;8.722;2022-12-07T16:01:37;11.13;;;6.38;;
4650;SDS011;2338;49.602;8.722;2022-12-07T16:04:22;8.15;;;5.00;;
4650;SDS011;2338;49.602;8.722;2022-12-07T16:07:08;12.82;;;6.28;;
4650;SDS011;2338;49.602;8.722;2022-12-07T16:09:56;12.50;;;8.52;;
4650;SDS011;2338;49.602;8.722;2022-12-07T16:12:42;12.90;;;7.13;;
4650;SDS011;2338;49.602;8.722;2022-12-07T16:15:27;9.95;;;6.78;;
4650;SDS011;2338;49.602;8.722;2022-12-07T16:18:13;8.65;;;6.05;;
4650;SDS011;2338;49.602;8.722;2022-12-07T16:20:58;8.57;;;5.50;;
4650;SDS011;2338;49.602;8.722;2022-12-07T16:23:44;8.00;;;5.15;;
4650;SDS011;2338;49.602;8.722;2022-12-07T16:26:34;7.50;;;6.07;;
4650;SDS011;2338;49.602;8.722;2022-12-07T16:29:20;10.68;;;6.75;;
4650;SDS011;2338;49.602;8.722;2022-12-07T16:32:07;14.02;;;6.05;;
4650;SDS011;2338;49.602;8.722;2022-12-07T16:34:53;8.82;;;6.13;;
4650;SDS011;2338;49.602;8.722;2022-12-07T16:37:38;8.70;;;6.25;;
4650;SDS011;2338;49.602;8.722;2022-12-07T16:40:27;11.55;;;7.30;;
4650;SDS011;2338;49.602;8.722;2022-12-07T16:43:14;10.55;;;6.85;;
4650;SDS011;2338;49.602;8.722;2022-12-07T16:45:59;14.30;;;6.40;;
4650;SDS011;2338;49.602;8.722;2022-12-07T16:48:45;11.32;;;6.88;;
4650;SDS011;2338;49.602;8.722;2022-12-07T16:51:31;8.70;;;6.38;;
4650;SDS011;2338;49.602;8.722;2022-12-07T16:54:18;17.65;;;7.10;;
4650;SDS011;2338;49.602;8.722;2022-12-07T16:57:03;9.02;;;5.88;;
4650;SDS011;2338;49.602;8.722;2022-12-07T16:59:50;8.05;;;6.28;;
4650;SDS011;2338;49.602;8.722;2022-12-07T17:02:36;8.70;;;6.50;;
4650;SDS011;2338;49.602;8.722;2022-12-07T17:05:22;8.15;;;6.60;;
4650;SDS011;2338;49.602;8.722;2022-12-07T17:08:08;9.77;;;7.13;;
4650;SDS011;2338;49.602;8.722;2022-12-07T17:10:54;13.32;;;6.90;;
4650;SDS011;2338;49.602;8.722;2022-12-07T17:13:40;11.70;;;7.00;;
4650;SDS011;2338;49.602;8.722;2022-12-07T17:16:45;15.88;;;6.68;;
4650;SDS011;2338;49.602;8.722;2022-12-07T17:19:31;9.77;;;6.45;;
4650;SDS011;2338;49.602;8.722;2022-12-07T17:22:16;8.13;;;5.95;;
4650;SDS011;2338;49.602;8.722;2022-12-07T17:25:02;9.40;;;6.72;;
4650;SDS011;2338;49.602;8.722;2022-12-07T17:27:48;12.02;;;6.68;;
4650;SDS011;2338;49.602;8.722;2022-12-07T17:30:33;9.95;;;6.40;;
4650;SDS011;2338;49.602;8.722;2022-12-07T17:33:20;8.75;;;6.35;;
4650;SDS011;2338;49.602;8.722;2022-12-07T17:36:09;11.55;;;7.55;;
4650;SDS011;2338;49.602;8.722;2022-12-07T17:38:55;14.20;;;9.02;;